sensor_id;sensor_type;location;lat;lon;timestamp;P1;durP1;ratioP1;P2;durP2;ratioP2
64157;SDS011;50449;51.528;5.076;2023-04-23T00:01:20;38.05;;;34.80;;
64157;SDS011;50449;51.528;5.076;2023-04-23T00:03:50;37.72;;;34.25;;
64157;SDS011;50449;51.528;5.076;2023-04-23T00:06:18;36.45;;;33.15;;
64157;SDS011;50449;51.528;5.076;2023-04-23T00:08:46;36.58;;;33.13;;
64157;SDS011;50449;51.528;5.076;2023-04-23T00:11:12;36.13;;;33.00;;
64157;SDS011;50449;51.528;5.076;2023-04-23T00:13:37;35.03;;;31.45;;
64157;SDS011;50449;51.528;5.076;2023-04-23T00:16:03;34.17;;;31.27;;
64157;SDS011;50449;51.528;5.076;2023-04-23T00:18:30;36.72;;;33.60;;
64157;SDS011;50449;51.528;5.076;2023-04-23T00:20:56;37.90;;;34.85;;
64157;SDS011;50449;51.528;5.076;2023-04-23T00:23:22;37.00;;;33.63;;
64157;SDS011;50449;51.528;5.076;2023-04-23T00:25:47;34.63;;;31.23;;
64157;SDS011;50449;51.528;5.076;2023-04-23T00:28:13;34.90;;;31.85;;
64157;SDS011;50449;51.528;5.076;2023-04-23T00:30:39;37.08;;;33.28;;
64157;SDS011;50449;51.528;5.076;2023-04-23T00:33:04;35.10;;;31.88;;
64157;SDS011;50449;51.528;5.076;2023-04-23T00:35:30;34.15;;;31.40;;
64157;SDS011;50449;51.528;5.076;2023-04-23T00:37:55;36.20;;;32.97;;
64157;SDS011;50449;51.528;5.076;2023-04-23T00:40:21;35.90;;;32.30;;
64157;SDS011;50449;51.528;5.076;2023-04-23T00:42:47;36.08;;;33.20;;
64157;SDS011;50449;51.528;5.076;2023-04-23T00:45:16;34.20;;;30.88;;
64157;SDS011;50449;51.528;5.076;2023-04-23T00:47:42;35.35;;;32.00;;
64157;SDS011;50449;51.528;5.076;2023-04-23T00:50:07;35.65;;;32.65;;
64157;SDS011;50449;51.528;5.076;2023-04-23T00:52:33;35.45;;;32.20;;
64157;SDS011;50449;51.528;5.076;2023-04-23T00:55:00;38.65;;;35.10;;
64157;SDS011;50449;51.528;5.076;2023-04-23T00:57:25;33.25;;;30.38;;
64157;SDS011;50449;51.528;5.076;2023-04-23T00:59:51;35.88;;;32.65;;
64157;SDS011;50449;51.528;5.076;2023-04-23T01:02:19;33.25;;;30.25;;
64157;SDS011;50449;51.528;5.076;2023-04-23T01:04:45;33.50;;;30.63;;
64157;SDS011;50449;51.528;5.076;2023-04-23T01:07:15;33.60;;;30.92;;
64157;SDS011;50449;51.528;5.076;2023-04-23T01:09:40;34.83;;;31.70;;
64157;SDS011;50449;51.528;5.076;2023-04-23T01:12:06;33.17;;;30.45;;
64157;SDS011;50449;51.528;5.076;2023-04-23T01:14:33;35.83;;;32.65;;
64157;SDS011;50449;51.528;5.076;2023-04-23T01:16:59;34.50;;;31.48;;
64157;SDS011;50449;51.528;5.076;2023-04-23T01:19:25;35.63;;;32.60;;
64157;SDS011;50449;51.528;5.076;2023-04-23T01:21:51;36.15;;;32.95;;
64157;SDS011;50449;51.528;5.076;2023-04-23T01:24:17;34.70;;;31.67;;
64157;SDS011;50449;51.528;5.076;2023-04-23T01:26:42;33.92;;;31.13;;
64157;SDS011;50449;51.528;5.076;2023-04-23T01:29:08;34.50;;;31.55;;
64157;SDS011;50449;51.528;5.076;2023-04-23T01:31:35;33.13;;;30.13;;
64157;SDS011;50449;51.528;5.076;2023-04-23T01:34:01;35.00;;;31.92;;
64157;SDS011;50449;51.528;5.076;2023-04-23T01:36:27;34.15;;;30.92;;
64157;SDS011;50449;51.528;5.076;2023-04-23T01:38:52;35.05;;;32.13;;
64157;SDS011;50449;51.528;5.076;2023-04-23T01:41:18;34.50;;;31.58;;
64157;SDS011;50449;51.528;5.076;2023-04-23T01:43:46;33.17;;;30.35;;
64157;SDS011;50449;51.528;5.076;2023-04-23T01:46:12;32.45;;;29.77;;
64157;SDS011;50449;51.528;5.076;2023-04-23T01:48:38;33.20;;;30.50;;
64157;SDS011;50449;51.528;5.076;2023-04-23T01:51:03;34.80;;;31.83;;
64157;SDS011;50449;51.528;5.076;2023-04-23T01:53:29;33.00;;;30.50;;
64157;SDS011;50449;51.528;5.076;2023-04-23T01:55:55;32.47;;;29.77;;
64157;SDS011;50449;51.528;5.076;2023-04-23T01:58:21;32.70;;;30.00;;
64157;SDS011;50449;51.528;5.076;2023-04-23T02:00:48;34.25;;;30.95;;
64157;SDS011;50449;51.528;5.076;2023-04-23T02:03:13;33.30;;;30.58;;
64157;SDS011;50449;51.528;5.076;2023-04-23T02:05:39;32.22;;;29.73;;
64157;SDS011;50449;51.528;5.076;2023-04-23T02:08:05;33.90;;;31.23;;
64157;SDS011;50449;51.528;5.076;2023-04-23T02:10:32;33.97;;;31.17;;
64157;SDS011;50449;51.528;5.076;2023-04-23T02:12:57;32.85;;;30.17;;
64157;SDS011;50449;51.528;5.076;2023-04-23T02:15:23;31.65;;;28.95;;
64157;SDS011;50449;51.528;5.076;2023-04-23T02:17:49;32.42;;;29.77;;
64157;SDS011;50449;51.528;5.076;2023-04-23T02:20:16;32.45;;;29.55;;
64157;SDS011;50449;51.528;5.076;2023-04-23T02:22:42;32.28;;;29.73;;
64157;SDS011;50449;51.528;5.076;2023-04-23T02:25:09;33.13;;;30.42;;
64157;SDS011;50449;51.528;5.076;2023-04-23T02:27:34;31.90;;;29.20;;
64157;SDS011;50449;51.528;5.076;2023-04-23T02:30:00;33.10;;;30.13;;
64157;SDS011;50449;51.528;5.076;2023-04-23T02:32:26;31.48;;;29.02;;
64157;SDS011;50449;51.528;5.076;2023-04-23T02:34:52;33.05;;;30.35;;
64157;SDS011;50449;51.528;5.076;2023-04-23T02:37:18;30.48;;;28.17;;
64157;SDS011;50449;51.528;5.076;2023-04-23T02:39:44;33.03;;;30.38;;
64157;SDS011;50449;51.528;5.076;2023-04-23T02:42:09;35.05;;;32.10;;
64157;SDS011;50449;51.528;5.076;2023-04-23T02:44:35;33.08;;;30.73;;
64157;SDS011;50449;51.528;5.076;2023-04-23T02:47:01;33.38;;;30.77;;
64157;SDS011;50449;51.528;5.076;2023-04-23T02:49:26;30.33;;;27.98;;
64157;SDS011;50449;51.528;5.076;2023-04-23T02:51:51;31.65;;;29.23;;
64157;SDS011;50449;51.528;5.076;2023-04-23T02:54:20;31.30;;;28.60;;
64157;SDS011;50449;51.528;5.076;2023-04-23T02:56:45;33.08;;;30.48;;
64157;SDS011;50449;51.528;5.076;2023-04-23T02:59:11;32.15;;;29.58;;
64157;SDS011;50449;51.528;5.076;2023-04-23T03:01:36;30.27;;;28.00;;
64157;SDS011;50449;51.528;5.076;2023-04-23T03:04:01;31.38;;;28.92;;
64157;SDS011;50449;51.528;5.076;2023-04-23T03:06:28;29.40;;;27.38;;
64157;SDS011;50449;51.528;5.076;2023-04-23T03:08:55;30.05;;;27.42;;
64157;SDS011;50449;51.528;5.076;2023-04-23T03:11:20;30.65;;;28.20;;
64157;SDS011;50449;51.528;5.076;2023-04-23T03:13:46;30.23;;;27.80;;
64157;SDS011;50449;51.528;5.076;2023-04-23T03:16:12;30.88;;;28.48;;
64157;SDS011;50449;51.528;5.076;2023-04-23T03:18:38;30.30;;;28.17;;
64157;SDS011;50449;51.528;5.076;2023-04-23T03:21:03;31.48;;;28.83;;
64157;SDS011;50449;51.528;5.076;2023-04-23T03:23:29;29.05;;;26.98;;
64157;SDS011;50449;51.528;5.076;2023-04-23T03:25:54;30.25;;;27.77;;
64157;SDS011;50449;51.528;5.076;2023-04-23T03:28:20;28.83;;;26.55;;
64157;SDS011;50449;51.528;5.076;2023-04-23T03:30:46;29.15;;;26.95;;
64157;SDS011;50449;51.528;5.076;2023-04-23T03:33:11;30.75;;;27.98;;
64157;SDS011;50449;51.528;5.076;2023-04-23T03:35:36;30.30;;;27.83;;
64157;SDS011;50449;51.528;5.076;2023-04-23T03:38:02;31.10;;;28.25;;
64157;SDS011;50449;51.528;5.076;2023-04-23T03:40:27;29.17;;;26.98;;
64157;SDS011;50449;51.528;5.076;2023-04-23T03:42:52;30.55;;;28.13;;
64157;SDS011;50449;51.528;5.076;2023-04-23T03:45:18;30.33;;;28.13;;
64157;SDS011;50449;51.528;5.076;2023-04-23T03:47:43;29.60;;;27.35;;
64157;SDS011;50449;51.528;5.076;2023-04-23T03:50:09;31.73;;;29.25;;
64157;SDS011;50449;51.528;5.076;2023-04-23T03:52:37;28.92;;;26.60;;
64157;SDS011;50449;51.528;5.076;2023-04-23T03:55:02;30.70;;;28.10;;
64157;SDS011;50449;51.528;5.076;2023-04-23T03:57:28;29.80;;;27.20;;
64157;SDS011;50449;51.528;5.076;2023-04-23T03:59:53;29.70;;;27.40;;
64157;SDS011;50449;51.528;5.076;2023-04-23T04:02:19;29.05;;;26.77;;
64157;SDS011;50449;51.528;5.076;2023-04-23T04:04:45;29.90;;;27.50;;
64157;SDS011;50449;51.528;5.076;2023-04-23T04:07:13;30.10;;;27.65;;
64157;SDS011;50449;51.528;5.076;2023-04-23T04:09:38;28.65;;;26.42;;
64157;SDS011;50449;51.528;5.076;2023-04-23T04:12:04;29.30;;;27.10;;
64157;SDS011;50449;51.528;5.076;2023-04-23T04:14:30;28.55;;;26.45;;
64157;SDS011;50449;51.528;5.076;2023-04-23T04:16:56;28.90;;;26.88;;
64157;SDS011;50449;51.528;5.076;2023-04-23T04:19:21;31.20;;;28.85;;
64157;SDS011;50449;51.528;5.076;2023-04-23T04:21:47;29.40;;;27.08;;
64157;SDS011;50449;51.528;5.076;2023-04-23T04:24:12;29.02;;;26.83;;
64157;SDS011;50449;51.528;5.076;2023-04-23T04:26:38;27.33;;;25.50;;
64157;SDS011;50449;51.528;5.076;2023-04-23T04:29:04;28.55;;;26.45;;
64157;SDS011;50449;51.528;5.076;2023-04-23T04:31:29;29.05;;;26.95;;
64157;SDS011;50449;51.528;5.076;2023-04-23T04:33:55;27.92;;;25.92;;
64157;SDS011;50449;51.528;5.076;2023-04-23T04:36:21;29.75;;;27.65;;
64157;SDS011;50449;51.528;5.076;2023-04-23T04:38:49;29.67;;;27.33;;
64157;SDS011;50449;51.528;5.076;2023-04-23T04:41:15;29.08;;;26.80;;
64157;SDS011;50449;51.528;5.076;2023-04-23T04:43:42;29.45;;;27.15;;
64157;SDS011;50449;51.528;5.076;2023-04-23T04:46:07;28.63;;;26.63;;
64157;SDS011;50449;51.528;5.076;2023-04-23T04:48:35;28.50;;;26.40;;
64157;SDS011;50449;51.528;5.076;2023-04-23T04:51:01;28.65;;;26.25;;
64157;SDS011;50449;51.528;5.076;2023-04-23T04:53:26;27.65;;;25.60;;
64157;SDS011;50449;51.528;5.076;2023-04-23T04:55:52;28.90;;;26.77;;
64157;SDS011;50449;51.528;5.076;2023-04-23T04:58:17;28.23;;;26.33;;
64157;SDS011;50449;51.528;5.076;2023-04-23T05:00:42;29.30;;;27.10;;
64157;SDS011;50449;51.528;5.076;2023-04-23T05:03:08;30.05;;;27.80;;
64157;SDS011;50449;51.528;5.076;2023-04-23T05:05:33;27.85;;;25.88;;
64157;SDS011;50449;51.528;5.076;2023-04-23T05:07:59;26.75;;;24.70;;
64157;SDS011;50449;51.528;5.076;2023-04-23T05:10:26;27.38;;;25.40;;
64157;SDS011;50449;51.528;5.076;2023-04-23T05:12:53;27.60;;;25.60;;
64157;SDS011;50449;51.528;5.076;2023-04-23T05:15:20;28.45;;;26.17;;
64157;SDS011;50449;51.528;5.076;2023-04-23T05:17:45;27.35;;;25.30;;
64157;SDS011;50449;51.528;5.076;2023-04-23T05:20:11;29.20;;;26.92;;
64157;SDS011;50449;51.528;5.076;2023-04-23T05:22:40;27.42;;;25.63;;
64157;SDS011;50449;51.528;5.076;2023-04-23T05:25:06;28.35;;;26.13;;
64157;SDS011;50449;51.528;5.076;2023-04-23T05:27:33;27.08;;;24.98;;
64157;SDS011;50449;51.528;5.076;2023-04-23T05:29:59;29.23;;;26.85;;
64157;SDS011;50449;51.528;5.076;2023-04-23T05:32:26;26.90;;;25.02;;
64157;SDS011;50449;51.528;5.076;2023-04-23T05:34:51;28.77;;;26.58;;
64157;SDS011;50449;51.528;5.076;2023-04-23T05:37:17;28.42;;;26.35;;
64157;SDS011;50449;51.528;5.076;2023-04-23T05:39:42;26.98;;;25.27;;
64157;SDS011;50449;51.528;5.076;2023-04-23T05:42:08;27.88;;;25.88;;
64157;SDS011;50449;51.528;5.076;2023-04-23T05:44:33;26.88;;;25.00;;
64157;SDS011;50449;51.528;5.076;2023-04-23T05:46:59;28.30;;;26.30;;
64157;SDS011;50449;51.528;5.076;2023-04-23T05:49:25;28.02;;;26.25;;
64157;SDS011;50449;51.528;5.076;2023-04-23T05:51:51;26.25;;;24.70;;
64157;SDS011;50449;51.528;5.076;2023-04-23T05:54:16;27.65;;;25.35;;
64157;SDS011;50449;51.528;5.076;2023-04-23T05:56:43;27.05;;;25.00;;
64157;SDS011;50449;51.528;5.076;2023-04-23T05:59:08;26.85;;;24.98;;
64157;SDS011;50449;51.528;5.076;2023-04-23T06:01:33;26.50;;;24.67;;
64157;SDS011;50449;51.528;5.076;2023-04-23T06:03:59;26.83;;;24.95;;
64157;SDS011;50449;51.528;5.076;2023-04-23T06:06:25;27.88;;;25.92;;
64157;SDS011;50449;51.528;5.076;2023-04-23T06:08:51;25.00;;;23.33;;
64157;SDS011;50449;51.528;5.076;2023-04-23T06:11:17;27.63;;;25.65;;
64157;SDS011;50449;51.528;5.076;2023-04-23T06:13:42;25.70;;;23.77;;
64157;SDS011;50449;51.528;5.076;2023-04-23T06:16:08;25.75;;;23.95;;
64157;SDS011;50449;51.528;5.076;2023-04-23T06:18:33;26.60;;;24.90;;
64157;SDS011;50449;51.528;5.076;2023-04-23T06:21:01;26.52;;;24.63;;
64157;SDS011;50449;51.528;5.076;2023-04-23T06:23:28;27.42;;;25.55;;
64157;SDS011;50449;51.528;5.076;2023-04-23T06:25:54;26.67;;;24.67;;
64157;SDS011;50449;51.528;5.076;2023-04-23T06:28:20;28.30;;;26.20;;
64157;SDS011;50449;51.528;5.076;2023-04-23T06:30:45;26.08;;;24.38;;
64157;SDS011;50449;51.528;5.076;2023-04-23T06:33:11;25.63;;;24.05;;
64157;SDS011;50449;51.528;5.076;2023-04-23T06:35:37;24.98;;;23.48;;
64157;SDS011;50449;51.528;5.076;2023-04-23T06:38:02;27.98;;;25.98;;
64157;SDS011;50449;51.528;5.076;2023-04-23T06:40:28;27.02;;;25.13;;
64157;SDS011;50449;51.528;5.076;2023-04-23T06:42:53;25.80;;;24.02;;
64157;SDS011;50449;51.528;5.076;2023-04-23T06:45:19;28.98;;;26.80;;
64157;SDS011;50449;51.528;5.076;2023-04-23T06:47:45;28.92;;;26.65;;
64157;SDS011;50449;51.528;5.076;2023-04-23T06:50:13;28.48;;;26.58;;
64157;SDS011;50449;51.528;5.076;2023-04-23T06:52:38;25.73;;;23.85;;
64157;SDS011;50449;51.528;5.076;2023-04-23T06:55:04;26.83;;;25.10;;
64157;SDS011;50449;51.528;5.076;2023-04-23T06:57:30;27.85;;;25.83;;
64157;SDS011;50449;51.528;5.076;2023-04-23T06:59:55;27.83;;;25.52;;
64157;SDS011;50449;51.528;5.076;2023-04-23T07:02:21;29.08;;;26.85;;
64157;SDS011;50449;51.528;5.076;2023-04-23T07:04:46;25.77;;;24.00;;
64157;SDS011;50449;51.528;5.076;2023-04-23T07:07:11;24.10;;;22.70;;
64157;SDS011;50449;51.528;5.076;2023-04-23T07:09:37;25.88;;;24.17;;
64157;SDS011;50449;51.528;5.076;2023-04-23T07:12:02;25.27;;;23.77;;
64157;SDS011;50449;51.528;5.076;2023-04-23T07:14:28;27.30;;;25.52;;
64157;SDS011;50449;51.528;5.076;2023-04-23T07:16:53;25.13;;;23.38;;
64157;SDS011;50449;51.528;5.076;2023-04-23T07:19:19;27.33;;;25.48;;
64157;SDS011;50449;51.528;5.076;2023-04-23T07:21:46;27.40;;;25.40;;
64157;SDS011;50449;51.528;5.076;2023-04-23T07:24:12;26.75;;;25.10;;
64157;SDS011;50449;51.528;5.076;2023-04-23T07:26:37;26.38;;;24.58;;
64157;SDS011;50449;51.528;5.076;2023-04-23T07:29:03;25.60;;;23.98;;
64157;SDS011;50449;51.528;5.076;2023-04-23T07:31:30;28.05;;;26.02;;
64157;SDS011;50449;51.528;5.076;2023-04-23T07:33:56;27.27;;;25.35;;
64157;SDS011;50449;51.528;5.076;2023-04-23T07:36:21;25.17;;;23.65;;
64157;SDS011;50449;51.528;5.076;2023-04-23T07:38:47;25.63;;;24.02;;
64157;SDS011;50449;51.528;5.076;2023-04-23T07:41:12;26.15;;;24.40;;
64157;SDS011;50449;51.528;5.076;2023-04-23T07:43:38;28.27;;;26.38;;
64157;SDS011;50449;51.528;5.076;2023-04-23T07:46:05;26.02;;;24.48;;
64157;SDS011;50449;51.528;5.076;2023-04-23T07:48:31;27.85;;;26.05;;
64157;SDS011;50449;51.528;5.076;2023-04-23T07:50:58;28.15;;;26.15;;
64157;SDS011;50449;51.528;5.076;2023-04-23T07:53:24;26.70;;;25.02;;
64157;SDS011;50449;51.528;5.076;2023-04-23T07:55:52;27.30;;;25.52;;
64157;SDS011;50449;51.528;5.076;2023-04-23T07:58:18;28.95;;;27.30;;
64157;SDS011;50449;51.528;5.076;2023-04-23T08:00:43;27.52;;;25.83;;
64157;SDS011;50449;51.528;5.076;2023-04-23T08:03:08;27.73;;;25.98;;
64157;SDS011;50449;51.528;5.076;2023-04-23T08:05:34;29.10;;;27.30;;
64157;SDS011;50449;51.528;5.076;2023-04-23T08:08:02;26.75;;;25.17;;
64157;SDS011;50449;51.528;5.076;2023-04-23T08:10:27;27.27;;;25.58;;
64157;SDS011;50449;51.528;5.076;2023-04-23T08:12:52;27.13;;;25.42;;
64157;SDS011;50449;51.528;5.076;2023-04-23T08:15:18;27.52;;;25.92;;
64157;SDS011;50449;51.528;5.076;2023-04-23T08:17:44;27.75;;;26.17;;
64157;SDS011;50449;51.528;5.076;2023-04-23T08:20:10;27.92;;;26.33;;
64157;SDS011;50449;51.528;5.076;2023-04-23T08:22:35;30.73;;;28.65;;
64157;SDS011;50449;51.528;5.076;2023-04-23T08:25:00;28.73;;;27.05;;
64157;SDS011;50449;51.528;5.076;2023-04-23T08:27:26;28.90;;;27.15;;
64157;SDS011;50449;51.528;5.076;2023-04-23T08:29:51;29.05;;;27.45;;
64157;SDS011;50449;51.528;5.076;2023-04-23T08:32:16;28.60;;;26.98;;
64157;SDS011;50449;51.528;5.076;2023-04-23T08:34:42;30.35;;;28.55;;
64157;SDS011;50449;51.528;5.076;2023-04-23T08:37:07;30.10;;;28.40;;
64157;SDS011;50449;51.528;5.076;2023-04-23T08:39:33;31.85;;;29.92;;
64157;SDS011;50449;51.528;5.076;2023-04-23T08:42:02;29.67;;;28.08;;
64157;SDS011;50449;51.528;5.076;2023-04-23T08:44:33;32.47;;;30.40;;
64157;SDS011;50449;51.528;5.076;2023-04-23T08:47:02;29.90;;;28.20;;
64157;SDS011;50449;51.528;5.076;2023-04-23T08:49:32;33.03;;;30.92;;
64157;SDS011;50449;51.528;5.076;2023-04-23T08:52:01;32.53;;;30.83;;
64157;SDS011;50449;51.528;5.076;2023-04-23T08:54:39;32.78;;;30.80;;
64157;SDS011;50449;51.528;5.076;2023-04-23T08:57:07;32.00;;;30.00;;
64157;SDS011;50449;51.528;5.076;2023-04-23T08:59:33;32.65;;;30.80;;
64157;SDS011;50449;51.528;5.076;2023-04-23T09:02:00;32.47;;;30.67;;
64157;SDS011;50449;51.528;5.076;2023-04-23T09:04:32;32.35;;;30.52;;
64157;SDS011;50449;51.528;5.076;2023-04-23T09:06:58;29.48;;;27.88;;
64157;SDS011;50449;51.528;5.076;2023-04-23T09:09:24;33.40;;;31.42;;
64157;SDS011;50449;51.528;5.076;2023-04-23T09:11:53;32.58;;;30.48;;
64157;SDS011;50449;51.528;5.076;2023-04-23T09:14:21;32.35;;;30.50;;
64157;SDS011;50449;51.528;5.076;2023-04-23T09:19:14;33.33;;;31.42;;
64157;SDS011;50449;51.528;5.076;2023-04-23T09:21:41;34.55;;;32.53;;
64157;SDS011;50449;51.528;5.076;2023-04-23T09:24:08;36.25;;;33.70;;
64157;SDS011;50449;51.528;5.076;2023-04-23T09:26:43;35.38;;;33.03;;
64157;SDS011;50449;51.528;5.076;2023-04-23T09:29:20;34.05;;;32.22;;
64157;SDS011;50449;51.528;5.076;2023-04-23T09:31:54;38.78;;;32.10;;
64157;SDS011;50449;51.528;5.076;2023-04-23T09:34:22;34.33;;;32.42;;
64157;SDS011;50449;51.528;5.076;2023-04-23T09:36:49;34.67;;;32.70;;
64157;SDS011;50449;51.528;5.076;2023-04-23T09:39:17;35.72;;;33.33;;
64157;SDS011;50449;51.528;5.076;2023-04-23T09:41:43;34.80;;;33.10;;
64157;SDS011;50449;51.528;5.076;2023-04-23T09:46:46;35.50;;;33.40;;
64157;SDS011;50449;51.528;5.076;2023-04-23T09:49:13;34.45;;;32.45;;
64157;SDS011;50449;51.528;5.076;2023-04-23T09:51:40;35.67;;;33.58;;
64157;SDS011;50449;51.528;5.076;2023-04-23T09:54:16;34.53;;;32.72;;
64157;SDS011;50449;51.528;5.076;2023-04-23T09:56:49;36.80;;;34.90;;
64157;SDS011;50449;51.528;5.076;2023-04-23T10:01:50;37.35;;;34.72;;
64157;SDS011;50449;51.528;5.076;2023-04-23T10:04:25;37.17;;;35.22;;
64157;SDS011;50449;51.528;5.076;2023-04-23T10:06:54;38.25;;;36.25;;
64157;SDS011;50449;51.528;5.076;2023-04-23T10:09:21;38.13;;;36.00;;
64157;SDS011;50449;51.528;5.076;2023-04-23T10:11:52;39.47;;;37.17;;
64157;SDS011;50449;51.528;5.076;2023-04-23T10:14:22;36.55;;;34.67;;
64157;SDS011;50449;51.528;5.076;2023-04-23T10:16:51;37.63;;;35.53;;
64157;SDS011;50449;51.528;5.076;2023-04-23T10:19:21;36.92;;;35.13;;
64157;SDS011;50449;51.528;5.076;2023-04-23T10:21:52;39.95;;;37.78;;
64157;SDS011;50449;51.528;5.076;2023-04-23T10:24:21;37.25;;;35.40;;
64157;SDS011;50449;51.528;5.076;2023-04-23T10:26:49;38.63;;;36.53;;
64157;SDS011;50449;51.528;5.076;2023-04-23T10:29:16;37.97;;;36.08;;
64157;SDS011;50449;51.528;5.076;2023-04-23T10:31:49;38.80;;;36.25;;
64157;SDS011;50449;51.528;5.076;2023-04-23T10:34:16;41.10;;;38.90;;
64157;SDS011;50449;51.528;5.076;2023-04-23T10:36:43;40.25;;;37.95;;
64157;SDS011;50449;51.528;5.076;2023-04-23T10:39:08;36.22;;;34.25;;
64157;SDS011;50449;51.528;5.076;2023-04-23T10:41:36;38.17;;;36.28;;
64157;SDS011;50449;51.528;5.076;2023-04-23T10:46:30;38.20;;;36.10;;
64157;SDS011;50449;51.528;5.076;2023-04-23T10:49:06;38.63;;;36.28;;
64157;SDS011;50449;51.528;5.076;2023-04-23T10:51:35;37.85;;;35.88;;
64157;SDS011;50449;51.528;5.076;2023-04-23T10:54:04;40.10;;;38.05;;
64157;SDS011;50449;51.528;5.076;2023-04-23T10:56:29;38.88;;;36.67;;
64157;SDS011;50449;51.528;5.076;2023-04-23T10:58:55;40.28;;;38.13;;
64157;SDS011;50449;51.528;5.076;2023-04-23T11:01:24;40.90;;;38.78;;
64157;SDS011;50449;51.528;5.076;2023-04-23T11:03:51;40.15;;;38.15;;
64157;SDS011;50449;51.528;5.076;2023-04-23T11:12:01;41.53;;;39.42;;
64157;SDS011;50449;51.528;5.076;2023-04-23T11:19:23;37.35;;;35.30;;
64157;SDS011;50449;51.528;5.076;2023-04-23T11:24:30;40.17;;;37.97;;
64157;SDS011;50449;51.528;5.076;2023-04-23T11:26:58;41.42;;;39.38;;
64157;SDS011;50449;51.528;5.076;2023-04-23T11:29:24;39.75;;;37.67;;
64157;SDS011;50449;51.528;5.076;2023-04-23T11:31:51;42.42;;;40.20;;
64157;SDS011;50449;51.528;5.076;2023-04-23T11:34:18;40.72;;;38.70;;
64157;SDS011;50449;51.528;5.076;2023-04-23T11:36:43;43.28;;;40.78;;
64157;SDS011;50449;51.528;5.076;2023-04-23T11:39:10;40.22;;;38.22;;
64157;SDS011;50449;51.528;5.076;2023-04-23T11:41:36;41.58;;;39.47;;
64157;SDS011;50449;51.528;5.076;2023-04-23T11:44:02;42.63;;;40.33;;
64157;SDS011;50449;51.528;5.076;2023-04-23T11:46:28;40.53;;;38.22;;
64157;SDS011;50449;51.528;5.076;2023-04-23T11:48:54;43.95;;;41.45;;
64157;SDS011;50449;51.528;5.076;2023-04-23T11:51:24;41.20;;;39.25;;
64157;SDS011;50449;51.528;5.076;2023-04-23T11:53:50;44.17;;;41.90;;
64157;SDS011;50449;51.528;5.076;2023-04-23T11:56:16;42.65;;;40.55;;
64157;SDS011;50449;51.528;5.076;2023-04-23T11:58:41;41.17;;;39.20;;
64157;SDS011;50449;51.528;5.076;2023-04-23T12:01:06;41.95;;;39.88;;
64157;SDS011;50449;51.528;5.076;2023-04-23T12:03:32;41.13;;;39.03;;
64157;SDS011;50449;51.528;5.076;2023-04-23T12:05:58;41.80;;;39.70;;
64157;SDS011;50449;51.528;5.076;2023-04-23T12:08:23;43.20;;;41.00;;
64157;SDS011;50449;51.528;5.076;2023-04-23T12:10:53;42.38;;;40.08;;
64157;SDS011;50449;51.528;5.076;2023-04-23T12:13:26;41.13;;;38.60;;
64157;SDS011;50449;51.528;5.076;2023-04-23T12:15:58;41.60;;;39.40;;
64157;SDS011;50449;51.528;5.076;2023-04-23T12:18:32;40.78;;;38.58;;
64157;SDS011;50449;51.528;5.076;2023-04-23T12:21:09;43.88;;;41.65;;
64157;SDS011;50449;51.528;5.076;2023-04-23T12:23:36;41.42;;;39.13;;
64157;SDS011;50449;51.528;5.076;2023-04-23T12:26:03;43.22;;;41.05;;
64157;SDS011;50449;51.528;5.076;2023-04-23T12:28:29;40.80;;;38.83;;
64157;SDS011;50449;51.528;5.076;2023-04-23T12:30:58;43.47;;;40.90;;
64157;SDS011;50449;51.528;5.076;2023-04-23T12:33:28;41.33;;;39.05;;
64157;SDS011;50449;51.528;5.076;2023-04-23T12:35:54;43.70;;;41.35;;
64157;SDS011;50449;51.528;5.076;2023-04-23T12:38:21;43.85;;;41.72;;
64157;SDS011;50449;51.528;5.076;2023-04-23T12:40:48;42.53;;;40.42;;
64157;SDS011;50449;51.528;5.076;2023-04-23T12:43:14;42.40;;;40.40;;
64157;SDS011;50449;51.528;5.076;2023-04-23T12:45:39;42.05;;;40.00;;
64157;SDS011;50449;51.528;5.076;2023-04-23T12:48:05;42.90;;;40.67;;
64157;SDS011;50449;51.528;5.076;2023-04-23T12:50:30;42.25;;;40.05;;
64157;SDS011;50449;51.528;5.076;2023-04-23T12:52:56;43.25;;;41.10;;
64157;SDS011;50449;51.528;5.076;2023-04-23T12:55:21;42.03;;;39.92;;
64157;SDS011;50449;51.528;5.076;2023-04-23T12:57:46;42.95;;;40.83;;
64157;SDS011;50449;51.528;5.076;2023-04-23T13:00:12;45.80;;;43.42;;
64157;SDS011;50449;51.528;5.076;2023-04-23T13:02:37;41.65;;;39.58;;
64157;SDS011;50449;51.528;5.076;2023-04-23T13:05:03;43.97;;;41.67;;
64157;SDS011;50449;51.528;5.076;2023-04-23T13:07:29;42.60;;;40.40;;
64157;SDS011;50449;51.528;5.076;2023-04-23T13:09:55;44.17;;;42.08;;
64157;SDS011;50449;51.528;5.076;2023-04-23T13:12:24;43.25;;;41.00;;
64157;SDS011;50449;51.528;5.076;2023-04-23T13:14:49;42.55;;;40.55;;
64157;SDS011;50449;51.528;5.076;2023-04-23T13:17:15;41.85;;;39.55;;
64157;SDS011;50449;51.528;5.076;2023-04-23T13:19:40;43.60;;;41.20;;
64157;SDS011;50449;51.528;5.076;2023-04-23T13:22:06;43.33;;;41.05;;
64157;SDS011;50449;51.528;5.076;2023-04-23T13:24:31;41.92;;;39.72;;
64157;SDS011;50449;51.528;5.076;2023-04-23T13:26:57;43.33;;;41.22;;
64157;SDS011;50449;51.528;5.076;2023-04-23T13:29:23;43.22;;;41.00;;
64157;SDS011;50449;51.528;5.076;2023-04-23T13:31:48;43.90;;;41.80;;
64157;SDS011;50449;51.528;5.076;2023-04-23T13:34:14;45.15;;;42.72;;
64157;SDS011;50449;51.528;5.076;2023-04-23T13:36:39;45.05;;;42.83;;
64157;SDS011;50449;51.528;5.076;2023-04-23T13:39:07;45.83;;;43.53;;
64157;SDS011;50449;51.528;5.076;2023-04-23T13:41:34;42.17;;;39.97;;
64157;SDS011;50449;51.528;5.076;2023-04-23T13:44:00;43.28;;;40.97;;
64157;SDS011;50449;51.528;5.076;2023-04-23T13:46:25;45.83;;;43.60;;
64157;SDS011;50449;51.528;5.076;2023-04-23T13:48:54;44.70;;;42.50;;
64157;SDS011;50449;51.528;5.076;2023-04-23T13:51:20;45.90;;;43.40;;
64157;SDS011;50449;51.528;5.076;2023-04-23T13:53:45;44.45;;;42.25;;
64157;SDS011;50449;51.528;5.076;2023-04-23T13:56:11;45.40;;;42.92;;
64157;SDS011;50449;51.528;5.076;2023-04-23T13:58:37;44.42;;;42.08;;
64157;SDS011;50449;51.528;5.076;2023-04-23T14:01:06;46.88;;;44.55;;
64157;SDS011;50449;51.528;5.076;2023-04-23T14:03:32;44.53;;;42.25;;
64157;SDS011;50449;51.528;5.076;2023-04-23T14:05:57;44.90;;;42.60;;
64157;SDS011;50449;51.528;5.076;2023-04-23T14:08:23;47.42;;;45.22;;
64157;SDS011;50449;51.528;5.076;2023-04-23T14:10:48;44.65;;;42.35;;
64157;SDS011;50449;51.528;5.076;2023-04-23T14:13:14;44.03;;;41.72;;
64157;SDS011;50449;51.528;5.076;2023-04-23T14:15:40;44.13;;;41.40;;
64157;SDS011;50449;51.528;5.076;2023-04-23T14:18:06;44.42;;;42.08;;
64157;SDS011;50449;51.528;5.076;2023-04-23T14:20:32;44.05;;;41.95;;
64157;SDS011;50449;51.528;5.076;2023-04-23T14:23:02;45.15;;;42.72;;
64157;SDS011;50449;51.528;5.076;2023-04-23T14:25:39;43.42;;;41.15;;
64157;SDS011;50449;51.528;5.076;2023-04-23T14:30:54;44.05;;;41.75;;
64157;SDS011;50449;51.528;5.076;2023-04-23T14:33:21;46.55;;;43.90;;
64157;SDS011;50449;51.528;5.076;2023-04-23T14:35:46;46.38;;;43.53;;
64157;SDS011;50449;51.528;5.076;2023-04-23T14:38:12;43.33;;;41.22;;
64157;SDS011;50449;51.528;5.076;2023-04-23T14:40:37;41.40;;;39.28;;
64157;SDS011;50449;51.528;5.076;2023-04-23T14:43:02;44.03;;;41.83;;